Time;durP1;ratioP1;P1;durP2;ratioP2;P2;SDS_P1;SDS_P2;PMS_P1;PMS_P2;Temp;Humidity;BMP_temperature;BMP_pressure;BME280_temperature;BME280_humidity;BME280_pressure;Samples;Min_cycle;Max_cycle;Signal;HPM_P1;HPM_P2
2023/12/26 00:00:06;;;;;;;13.90;8.13;;;;;;;-141.97;53.58;46350.69;5028971;28;20186;-89
2023/12/26 00:02:32;;;;;;;16.53;8.53;;;;;;;-141.97;52.89;45962.59;5035644;28;20558;-89
2023/12/26 00:04:57;;;;;;;14.43;7.83;;;;;;;-141.97;52.62;46256.53;5031398;28;20206;-89
2023/12/26 00:07:23;;;;;;;15.17;8.03;;;;;;;-141.97;52.84;46366.06;5013697;28;20194;-88
2023/12/26 00:09:49;;;;;;;13.67;8.10;;;;;;;-141.97;52.72;46343.00;5012442;28;20159;-89
2023/12/26 00:12:15;;;;;;;15.97;8.27;;;;;;;-141.97;53.27;45889.56;5010571;28;20237;-88
2023/12/26 00:14:40;;;;;;;17.77;8.47;;;;;;;-141.97;52.97;45855.00;5018556;28;20159;-89
2023/12/26 00:17:06;;;;;;;15.60;8.97;;;;;;;-141.97;54.42;46319.94;5011817;28;20175;-91
2023/12/26 00:19:31;;;;;;;16.70;9.00;;;;;;;-141.97;55.38;46300.72;5026854;28;20167;-89
2023/12/26 00:21:56;;;;;;;14.97;8.37;;;;;;;-141.97;55.63;46354.53;5026592;28;20167;-88
2023/12/26 00:24:22;;;;;;;14.33;7.30;;;;;;;-141.97;56.05;45766.63;5025445;28;20273;-89
2023/12/26 00:26:47;;;;;;;17.87;9.30;;;;;;;-141.97;55.96;45870.38;5009391;28;20174;-88
2023/12/26 00:29:13;;;;;;;18.07;9.57;;;;;;;-141.97;56.08;46412.16;5010489;28;20515;-88
2023/12/26 00:31:41;;;;;;;15.43;9.23;;;;;;;-141.97;55.81;46214.25;5010232;28;20701;-88
2023/12/26 00:34:07;;;;;;;18.43;9.47;;;;;;;-141.97;55.46;45974.09;5008667;28;20169;-89
2023/12/26 00:36:33;;;;;;;19.07;10.30;;;;;;;-141.97;55.60;46245.00;5011151;28;20552;-89
2023/12/26 00:38:58;;;;;;;18.43;10.57;;;;;;;-141.97;55.55;46281.50;5025310;28;20174;-89
2023/12/26 00:41:24;;;;;;;18.83;10.00;;;;;;;-141.97;54.88;45772.41;5032908;28;20150;-90
2023/12/26 00:43:51;;;;;;;14.63;9.37;;;;;;;-141.97;55.11;45793.53;5033657;28;20225;-88
2023/12/26 00:46:18;;;;;;;19.27;10.07;;;;;;;-141.97;54.77;46102.81;5022510;28;20166;-87
2023/12/26 00:48:43;;;;;;;21.40;12.20;;;;;;;-141.97;54.68;45960.66;5014760;28;20600;-88
2023/12/26 00:51:09;;;;;;;20.77;11.00;;;;;;;-141.97;54.70;45974.09;5030833;28;20229;-88
2023/12/26 00:53:34;;;;;;;20.00;9.73;;;;;;;-141.97;55.34;45820.41;5027282;28;20632;-88
2023/12/26 00:56:00;;;;;;;17.60;9.70;;;;;;;-141.97;55.11;45931.84;5027527;28;20477;-90
2023/12/26 00:58:25;;;;;;;18.87;9.43;;;;;;;-141.97;55.74;45916.47;5010973;28;20242;-88
2023/12/26 01:00:51;;;;;;;18.13;9.80;;;;;;;-141.97;55.38;46066.31;5008972;28;20171;-89
2023/12/26 01:03:20;;;;;;;21.10;9.97;;;;;;;-141.97;55.53;46008.69;5013418;28;20674;-88
2023/12/26 01:05:46;;;;;;;17.50;9.27;;;;;;;-141.97;55.50;45979.88;5010743;28;20258;-88
2023/12/26 01:08:11;;;;;;;16.93;9.53;;;;;;;-141.97;55.31;45806.97;5011003;28;20640;-89
2023/12/26 01:10:37;;;;;;;16.77;9.60;;;;;;;-141.97;56.14;46223.88;5011872;28;20252;-89
2023/12/26 01:13:03;;;;;;;91.57;40.20;;;;;;;-141.97;56.56;45931.84;5010723;28;20199;-90
2023/12/26 01:15:29;;;;;;;44.30;21.77;;;;;;;-141.97;57.11;45962.59;5027890;28;20178;-87
2023/12/26 01:17:54;;;;;;;25.00;12.83;;;;;;;-141.97;57.42;46364.13;5027363;28;20182;-88
2023/12/26 01:20:19;;;;;;;23.40;11.30;;;;;;;-141.97;58.41;46204.66;5014261;28;20159;-88
2023/12/26 01:22:45;;;;;;;20.40;10.23;;;;;;;-141.97;59.28;46429.47;5017795;28;20190;-88
2023/12/26 01:25:10;;;;;;;19.43;9.97;;;;;;;-141.97;59.28;46414.09;5013639;28;20259;-88
2023/12/26 01:27:36;;;;;;;20.53;10.77;;;;;;;-141.97;60.20;46143.19;5011883;28;20171;-87
2023/12/26 01:30:02;;;;;;;20.50;11.27;;;;;;;-141.97;60.07;45831.94;5009834;28;20175;-87
2023/12/26 01:32:29;;;;;;;20.23;11.37;;;;;;;-141.97;60.84;45931.84;5010979;28;20237;-89
2023/12/26 01:34:54;;;;;;;24.10;12.07;;;;;;;-141.97;61.44;45879.97;5008945;28;20170;-87
2023/12/26 01:37:19;;;;;;;22.00;11.37;;;;;;;-141.97;61.32;45805.06;5024742;28;20229;-87
2023/12/26 01:39:45;;;;;;;19.40;10.50;;;;;;;-141.97;60.97;46346.84;5025038;28;20513;-90
2023/12/26 01:42:10;;;;;;;19.70;11.30;;;;;;;-141.97;61.29;46414.09;5008605;28;20623;-88
2023/12/26 01:44:36;;;;;;;19.37;11.13;;;;;;;-141.97;61.56;45926.06;5024818;28;20293;-89
2023/12/26 01:47:03;;;;;;;22.17;11.37;;;;;;;-141.97;61.76;46352.59;5026033;28;20268;-90
2023/12/26 01:49:29;;;;;;;22.77;11.60;;;;;;;-141.97;62.84;45947.22;5041185;28;20186;-88
2023/12/26 01:51:55;;;;;;;26.43;13.87;;;;;;;-141.97;63.01;46147.03;5033154;28;20198;-89
2023/12/26 01:54:28;;;;;;;35.23;17.77;;;;;;;-141.97;62.79;45958.75;5033771;28;20416;-89
2023/12/26 01:56:54;;;;;;;24.40;12.53;;;;;;;-141.97;62.58;45974.09;5054407;28;20181;-88
2023/12/26 01:59:19;;;;;;;35.77;17.23;;;;;;;-141.97;62.14;46400.63;5056873;28;20192;-90
2023/12/26 02:01:45;;;;;;;69.47;30.97;;;;;;;-141.97;62.05;46364.13;5038888;28;20170;-88
2023/12/26 02:04:11;;;;;;;76.67;37.13;;;;;;;-141.97;62.29;45933.75;5031660;28;20729;-87
2023/12/26 02:06:38;;;;;;;95.37;44.17;;;;;;;-141.97;62.03;46016.38;5032634;28;20174;-87
2023/12/26 02:09:04;;;;;;;35.17;16.97;;;;;;;-141.97;62.19;45912.63;5032709;28;20174;-89
2023/12/26 02:11:29;;;;;;;20.13;10.63;;;;;;;-141.97;62.49;45928.00;5032272;28;20559;-88
2023/12/26 02:13:55;;;;;;;25.33;12.37;;;;;;;-141.97;62.56;46112.44;5032263;28;20532;-87
2023/12/26 02:16:25;;;;;;;25.43;13.50;;;;;;;-141.97;62.90;46325.69;5030865;28;20250;-89
2023/12/26 02:18:51;;;;;;;39.50;18.60;;;;;;;-141.97;63.08;45891.50;5032662;28;20300;-89
2023/12/26 02:21:17;;;;;;;31.63;15.70;;;;;;;-141.97;63.44;46025.97;5031071;28;20416;-88
2023/12/26 02:23:43;;;;;;;22.03;11.40;;;;;;;-141.97;63.16;46039.44;5032344;28;20159;-89
2023/12/26 02:26:10;;;;;;;18.07;9.83;;;;;;;-141.97;63.19;45874.22;5032093;28;20197;-89
2023/12/26 02:28:36;;;;;;;20.30;10.20;;;;;;;-141.97;63.87;45870.38;5030635;28;20181;-87
2023/12/26 02:31:04;;;;;;;21.33;10.10;;;;;;;-141.97;64.11;46281.50;5031807;28;20486;-88
2023/12/26 02:33:30;;;;;;;20.33;9.77;;;;;;;-141.97;63.97;46258.44;5030984;28;20562;-88
2023/12/26 02:35:58;;;;;;;16.93;9.33;;;;;;;-141.97;64.02;46033.66;5030804;28;20440;-87
2023/12/26 02:38:23;;;;;;;17.60;10.03;;;;;;;-141.97;64.69;45793.53;5047287;28;20714;-88
2023/12/26 02:40:51;;;;;;;18.47;10.07;;;;;;;-141.97;64.86;45858.84;5030919;28;20841;-88
2023/12/26 02:43:20;;;;;;;18.13;9.57;;;;;;;-141.97;65.48;45914.56;5030424;28;20173;-89
2023/12/26 02:45:48;;;;;;;27.77;14.37;;;;;;;-141.97;65.29;45920.31;5030924;28;20807;-89
2023/12/26 02:48:14;;;;;;;25.33;12.37;;;;;;;-141.97;65.31;46027.91;5031731;28;20468;-88
2023/12/26 02:50:39;;;;;;;27.57;13.70;;;;;;;-141.97;65.88;46279.59;5031758;28;20529;-88
2023/12/26 02:53:05;;;;;;;20.43;10.60;;;;;;;-141.97;66.46;45966.44;5031702;28;20168;-88
2023/12/26 02:55:30;;;;;;;17.80;9.93;;;;;;;-141.97;66.34;45855.00;5030214;28;20653;-88
2023/12/26 02:57:56;;;;;;;19.67;8.93;;;;;;;-141.97;65.76;46325.69;5030000;28;20178;-87
2023/12/26 03:00:21;;;;;;;25.50;12.50;;;;;;;-141.97;65.70;46125.88;5030127;28;20177;-89
2023/12/26 03:02:47;;;;;;;23.37;11.10;;;;;;;-141.97;65.33;45824.25;5030636;28;20174;-89
2023/12/26 03:05:12;;;;;;;48.37;23.17;;;;;;;-141.97;65.08;45847.31;5031917;28;20166;-90
2023/12/26 03:07:38;;;;;;;19.67;10.47;;;;;;;-141.97;65.33;45881.91;5031576;28;20162;-89
2023/12/26 03:10:07;;;;;;;24.37;11.83;;;;;;;-141.97;65.47;46346.84;5031747;28;20174;-90
2023/12/26 03:12:32;;;;;;;22.07;11.57;;;;;;;-141.97;65.36;45831.94;5031388;28;20173;-88
2023/12/26 03:14:58;;;;;;;18.20;10.43;;;;;;;-141.97;66.09;45949.13;5030155;28;20413;-88
2023/12/26 03:17:25;;;;;;;23.33;10.70;;;;;;;-141.97;65.84;45805.06;5031553;28;20657;-89
2023/12/26 03:19:51;;;;;;;20.07;10.37;;;;;;;-141.97;65.65;45782.00;5030150;28;20557;-90
2023/12/26 03:22:18;;;;;;;15.50;8.80;;;;;;;-141.97;65.64;45989.47;5031155;28;20421;-89
2023/12/26 03:24:44;;;;;;;17.60;9.50;;;;;;;-141.97;65.55;45958.75;5031418;28;20177;-90
2023/12/26 03:27:10;;;;;;;20.57;10.20;;;;;;;-141.97;66.02;46369.88;5029742;28;20397;-90
2023/12/26 03:29:36;;;;;;;18.93;9.80;;;;;;;-141.97;66.36;46079.78;5031353;28;20619;-88
2023/12/26 03:32:01;;;;;;;22.43;11.67;;;;;;;-141.97;66.88;46204.66;5031566;28;20209;-89
2023/12/26 03:34:27;;;;;;;22.83;11.50;;;;;;;-141.97;67.85;45966.44;5030848;28;20171;-88
2023/12/26 03:36:52;;;;;;;25.80;12.13;;;;;;;-141.97;67.51;45839.63;5031163;28;20197;-88
2023/12/26 03:39:18;;;;;;;32.63;15.23;;;;;;;-141.97;67.55;46269.97;5031360;28;20162;-88
2023/12/26 03:41:48;;;;;;;26.33;12.87;;;;;;;-141.97;67.47;45762.78;5030172;28;20673;-88
2023/12/26 03:44:14;;;;;;;23.50;11.27;;;;;;;-141.97;67.37;46287.28;5029391;28;20169;-86
2023/12/26 03:46:40;;;;;;;23.40;10.80;;;;;;;-141.97;67.61;45901.09;5030378;28;20791;-87
2023/12/26 03:49:06;;;;;;;21.60;11.23;;;;;;;-141.97;67.50;45901.09;5029417;28;20421;-88
2023/12/26 03:51:31;;;;;;;24.07;11.37;;;;;;;-141.97;67.12;46074.00;5038124;28;20452;-88
2023/12/26 03:53:57;;;;;;;124.10;43.80;;;;;;;-141.97;67.46;45997.16;5032052;28;20178;-88
2023/12/26 03:56:23;;;;;;;329.00;109.80;;;;;;;-141.97;67.71;46016.38;5032412;28;20176;-88
2023/12/26 03:58:48;;;;;;;115.83;46.17;;;;;;;-141.97;67.50;45860.75;5029241;28;20539;-88
2023/12/26 04:01:14;;;;;;;126.80;48.13;;;;;;;-141.97;67.54;46440.97;5029170;28;20169;-88
2023/12/26 04:03:39;;;;;;;106.90;39.90;;;;;;;-141.97;67.40;46356.44;5029098;28;20178;-87
2023/12/26 04:06:05;;;;;;;77.07;31.03;;;;;;;-141.97;67.67;46314.16;5030100;28;20238;-88
2023/12/26 04:08:30;;;;;;;83.27;33.60;;;;;;;-141.97;68.18;45977.94;5029550;28;20264;-88
2023/12/26 04:10:56;;;;;;;44.30;19.77;;;;;;;-141.97;68.69;46400.63;5029747;28;20288;-88
2023/12/26 04:13:22;;;;;;;47.70;20.00;;;;;;;-141.97;68.98;45874.22;5029932;28;20170;-87
2023/12/26 04:15:47;;;;;;;48.23;22.40;;;;;;;-141.97;68.86;45922.25;5030215;28;20519;-87
2023/12/26 04:18:13;;;;;;;61.80;26.87;;;;;;;-141.97;68.60;46302.66;5030155;28;20261;-88
2023/12/26 04:20:39;;;;;;;37.20;17.93;;;;;;;-141.97;68.87;46373.72;5050016;28;20181;-88
2023/12/26 04:23:04;;;;;;;69.07;30.70;;;;;;;-141.97;68.45;45812.72;5054909;28;20189;-87
2023/12/26 04:25:30;;;;;;;47.93;21.70;;;;;;;-141.97;68.77;45785.84;5037404;28;20205;-87
2023/12/26 04:27:55;;;;;;;47.80;22.80;;;;;;;-141.97;68.46;46391.03;5028855;28;20178;-88
2023/12/26 04:30:21;;;;;;;47.20;22.47;;;;;;;-141.97;68.30;45881.91;5037069;28;20193;-86
2023/12/26 04:32:46;;;;;;;85.33;36.97;;;;;;;-141.97;68.34;45851.16;5036144;28;20170;-87
2023/12/26 04:35:12;;;;;;;75.20;33.47;;;;;;;-141.97;68.27;45862.69;5031322;28;20558;-88
2023/12/26 04:37:37;;;;;;;112.10;38.03;;;;;;;-141.97;68.37;45801.22;5029441;28;20216;-89
2023/12/26 04:40:03;;;;;;;158.67;43.20;;;;;;;-141.97;67.77;45872.28;5013787;28;20537;-89
2023/12/26 04:42:28;;;;;;;175.40;50.93;;;;;;;-141.97;68.15;45693.63;5009967;28;20315;-89
2023/12/26 04:44:54;;;;;;;234.93;53.37;;;;;;;-141.97;68.26;45780.06;5010738;28;20320;-90
2023/12/26 04:47:20;;;;;;;90.03;29.27;;;;;;;-141.97;67.90;45881.91;5009417;28;20256;-88
2023/12/26 04:49:45;;;;;;;47.87;19.07;;;;;;;-141.97;67.84;45858.84;5015763;28;20249;-89
2023/12/26 04:52:11;;;;;;;27.23;13.17;;;;;;;-141.97;68.97;45855.00;5009781;28;20203;-88
2023/12/26 04:54:36;;;;;;;25.73;12.60;;;;;;;-141.97;70.63;45901.09;5009020;28;20185;-87
2023/12/26 04:57:02;;;;;;;22.33;12.20;;;;;;;-141.97;70.70;46456.34;5030051;28;20171;-89
2023/12/26 04:59:27;;;;;;;25.83;13.07;;;;;;;-141.97;70.90;45899.19;5016556;28;20204;-87
2023/12/26 05:01:53;;;;;;;27.73;14.17;;;;;;;-141.97;71.15;46077.84;5011662;28;20242;-88
2023/12/26 05:04:19;;;;;;;32.77;14.70;;;;;;;-141.97;71.01;46025.97;5014596;28;20437;-90
2023/12/26 05:06:44;;;;;;;32.57;14.50;;;;;;;-141.97;70.73;45755.09;5011508;28;20250;-89
2023/12/26 05:09:10;;;;;;;43.77;19.17;;;;;;;-141.97;71.10;46095.16;5020854;28;20224;-88
2023/12/26 05:11:35;;;;;;;54.63;21.10;;;;;;;-141.97;71.02;45954.91;5029677;28;20225;-87
2023/12/26 05:14:01;;;;;;;29.00;14.63;;;;;;;-141.97;71.02;46085.53;5048681;28;20198;-87
2023/12/26 05:16:28;;;;;;;218.53;78.17;;;;;;;-141.97;70.82;46427.53;5023329;28;20182;-87
2023/12/26 05:18:53;;;;;;;286.77;94.57;;;;;;;-141.97;70.77;46012.53;5037530;28;20244;-88
2023/12/26 05:21:20;;;;;;;30.17;13.83;;;;;;;-141.97;70.98;46075.94;5019369;28;20457;-88
2023/12/26 05:23:46;;;;;;;44.60;19.03;;;;;;;-141.97;71.22;46243.09;5033660;28;20184;-89
2023/12/26 05:26:12;;;;;;;61.77;23.50;;;;;;;-141.97;70.82;46277.66;5016739;28;20488;-88
2023/12/26 05:28:40;;;;;;;277.30;86.00;;;;;;;-141.97;71.02;46041.34;5032970;28;20220;-87
2023/12/26 05:31:06;;;;;;;301.67;90.17;;;;;;;-141.97;71.16;45904.94;5016464;28;20198;-89
2023/12/26 05:33:31;;;;;;;36.07;16.50;;;;;;;-141.97;70.70;45889.56;5012965;28;20402;-89
2023/12/26 05:35:57;;;;;;;25.60;12.50;;;;;;;-141.97;71.13;45826.19;5015332;28;20286;-89
2023/12/26 05:38:22;;;;;;;25.43;12.90;;;;;;;-141.97;70.78;46004.84;5017798;28;20166;-88
2023/12/26 05:40:48;;;;;;;21.03;10.53;;;;;;;-141.97;70.79;45991.41;5013373;28;20582;-89
2023/12/26 05:43:13;;;;;;;21.47;12.00;;;;;;;-141.97;70.27;46039.44;5029670;28;20242;-88
2023/12/26 05:45:39;;;;;;;81.90;37.40;;;;;;;-141.97;70.38;45897.25;5017144;28;20178;-89
2023/12/26 05:48:07;;;;;;;40.03;18.83;;;;;;;-141.97;70.70;46018.28;5015703;28;20229;-91
2023/12/26 05:50:33;;;;;;;34.70;16.27;;;;;;;-141.97;70.94;45970.25;5017489;28;20224;-89
2023/12/26 05:52:58;;;;;;;28.77;14.57;;;;;;;-141.97;71.41;46001.00;5015921;28;20989;-89
2023/12/26 05:55:23;;;;;;;37.23;18.77;;;;;;;-141.97;71.50;45974.09;5017399;28;20166;-90
2023/12/26 05:57:49;;;;;;;42.03;20.97;;;;;;;-141.97;72.02;46498.63;5015401;28;20266;-91
2023/12/26 06:00:15;;;;;;;120.80;40.57;;;;;;;-141.97;72.17;46020.22;5034502;28;20237;-90
2023/12/26 06:02:40;;;;;;;35.63;16.40;;;;;;;-141.97;72.30;45928.00;5017794;28;20190;-88
2023/12/26 06:05:07;;;;;;;30.53;13.90;;;;;;;-141.97;72.34;46002.94;5026555;28;20174;-89
2023/12/26 06:07:32;;;;;;;28.60;14.60;;;;;;;-141.97;72.02;45914.56;5042130;28;20194;-90
2023/12/26 06:09:58;;;;;;;21.23;11.17;;;;;;;-141.97;72.17;46164.31;5021481;28;20476;-88
2023/12/26 06:12:23;;;;;;;20.90;10.80;;;;;;;-141.97;71.62;45839.63;5014431;28;20294;-89
2023/12/26 06:14:49;;;;;;;20.77;11.27;;;;;;;-141.97;71.42;46300.72;5016240;28;20166;-88
2023/12/26 06:17:14;;;;;;;23.00;11.80;;;;;;;-141.97;71.37;45943.38;5022004;28;20161;-90
2023/12/26 06:19:40;;;;;;;18.47;10.47;;;;;;;-141.97;71.54;46392.94;5017279;28;20174;-88
2023/12/26 06:22:08;;;;;;;31.37;15.90;;;;;;;-141.97;71.48;45826.19;5032201;28;20163;-88
2023/12/26 06:24:33;;;;;;;29.77;16.00;;;;;;;-141.97;71.43;46410.25;5026833;28;20257;-89
2023/12/26 06:27:01;;;;;;;25.63;12.30;;;;;;;-141.97;71.18;46070.16;5020852;28;20471;-93
2023/12/26 06:29:27;;;;;;;26.60;13.20;;;;;;;-141.97;70.88;46404.47;5031507;28;20232;-89
2023/12/26 06:31:53;;;;;;;29.43;14.53;;;;;;;-141.97;70.33;46385.25;5014524;28;20557;-90
2023/12/26 06:34:18;;;;;;;42.80;23.23;;;;;;;-141.97;68.55;46047.13;5033411;28;20175;-88
2023/12/26 06:36:47;;;;;;;72.97;34.70;;;;;;;-141.97;65.70;45739.72;5015484;28;20177;-88
2023/12/26 06:39:12;;;;;;;53.30;27.93;;;;;;;-141.97;63.82;45797.38;5016150;28;20569;-89
2023/12/26 06:41:39;;;;;;;50.63;23.40;;;;;;;-141.97;63.03;46035.59;5015608;28;20438;-89
2023/12/26 06:44:05;;;;;;;41.10;20.67;;;;;;;-141.97;62.89;45720.53;5033448;28;20179;-90
2023/12/26 06:46:30;;;;;;;50.60;25.17;;;;;;;-141.97;63.16;46427.53;5177663;22;20667;-89
2023/12/26 06:48:56;;;;;;;46.60;24.67;;;;;;;-141.97;63.36;45797.38;5036613;28;20552;-88
2023/12/26 06:51:21;;;;;;;36.00;18.47;;;;;;;-141.97;63.23;45970.25;5032502;28;20235;-89
2023/12/26 06:53:47;;;;;;;27.90;14.63;;;;;;;-141.97;62.87;46285.34;5035805;28;20273;-88
2023/12/26 06:56:13;;;;;;;31.97;15.43;;;;;;;-141.97;63.41;45851.16;5034191;28;20274;-89
2023/12/26 06:58:40;;;;;;;27.17;13.50;;;;;;;-141.97;59.34;45941.44;5035320;28;20417;-90
2023/12/26 07:01:13;;;;;;;29.90;13.73;;;;;;;-141.97;48.05;45889.56;5034970;28;20178;-90
2023/12/26 07:03:38;;;;;;;28.23;14.40;;;;;;;-141.97;43.17;45866.53;5039387;28;20229;-87
2023/12/26 07:06:04;;;;;;;22.27;13.03;;;;;;;-141.97;41.32;45968.34;5036478;28;20250;-89
2023/12/26 07:08:30;;;;;;;30.97;17.67;;;;;;;-141.97;39.46;45709.00;5035986;28;20184;-88
2023/12/26 07:10:55;;;;;;;28.70;15.47;;;;;;;-141.97;37.80;45689.78;5036741;28;20273;-87
2023/12/26 07:13:21;;;;;;;26.13;13.47;;;;;;;-141.97;37.51;46006.78;5045638;28;20622;-87
2023/12/26 07:15:46;;;;;;;26.17;14.03;;;;;;;-141.97;35.50;45551.47;5036503;28;20230;-89
2023/12/26 07:18:12;;;;;;;42.37;18.73;;;;;;;-141.97;35.80;46010.63;5031583;28;20166;-88
2023/12/26 07:20:37;;;;;;;25.97;13.87;;;;;;;-141.97;35.87;45716.69;5033197;28;20254;-89
2023/12/26 07:23:03;;;;;;;31.97;16.03;;;;;;;-141.97;35.29;45758.94;5038293;28;20172;-89
2023/12/26 07:25:29;;;;;;;51.63;25.90;;;;;;;-141.97;34.48;45709.00;5031813;28;20173;-89
2023/12/26 07:27:55;;;;;;;29.77;16.30;;;;;;;-141.97;34.10;45659.06;5032895;28;20253;-86
2023/12/26 07:30:20;;;;;;;30.23;16.13;;;;;;;-141.97;34.22;45639.84;5031414;28;20169;-89
2023/12/26 07:32:46;;;;;;;28.03;17.07;;;;;;;-141.97;35.83;46083.63;5034197;28;20642;-84
2023/12/26 07:35:11;;;;;;;30.13;17.20;;;;;;;-141.97;39.00;45732.06;5031151;28;20162;-86
2023/12/26 07:37:40;;;;;;;33.93;17.93;;;;;;;-141.97;41.64;45664.81;5029469;28;20170;-86
2023/12/26 07:40:06;;;;;;;39.17;25.90;;;;;;;-141.97;43.32;46177.75;5032788;28;20212;-85
2023/12/26 07:42:34;;;;;;;54.23;31.13;;;;;;;-141.97;44.65;45841.56;5034928;28;20174;-87
2023/12/26 07:44:59;;;;;;;53.70;34.37;;;;;;;-141.97;46.09;45824.25;5039397;28;20166;-87
2023/12/26 07:47:25;;;;;;;61.40;37.83;;;;;;;-141.97;46.27;45926.06;5039266;28;20230;-87
2023/12/26 07:49:51;;;;;;;51.60;31.17;;;;;;;-141.97;47.30;45770.47;5043096;28;20186;-85
2023/12/26 07:52:17;;;;;;;57.83;31.90;;;;;;;-141.97;47.85;45685.94;5041691;28;20228;-88
2023/12/26 07:54:43;;;;;;;82.57;42.80;;;;;;;-141.97;47.76;45818.50;5033212;28;20170;-88
2023/12/26 07:57:08;;;;;;;159.37;83.07;;;;;;;-141.97;48.41;45743.56;5034135;28;20197;-86
2023/12/26 07:59:34;;;;;;;80.63;42.40;;;;;;;-141.97;48.49;45735.91;5031689;28;20174;-86
2023/12/26 08:01:59;;;;;;;55.00;30.07;;;;;;;-141.97;48.57;46181.59;5031421;28;20162;-85
2023/12/26 08:04:25;;;;;;;52.73;28.73;;;;;;;-141.97;48.27;45858.84;5033887;28;20150;-87
2023/12/26 08:06:50;;;;;;;65.20;32.50;;;;;;;-141.97;48.43;46306.50;5031201;28;20259;-85
2023/12/26 08:09:16;;;;;;;62.53;32.27;;;;;;;-141.97;48.16;45806.97;5033860;28;20162;-86
2023/12/26 08:11:41;;;;;;;48.07;24.90;;;;;;;-141.97;47.78;46271.91;5031823;28;20575;-86
2023/12/26 08:14:09;;;;;;;71.30;36.03;;;;;;;-141.97;47.43;45870.38;5036706;28;20516;-87
2023/12/26 08:16:35;;;;;;;88.83;45.17;;;;;;;-141.97;46.77;46346.84;5031572;28;20189;-88
2023/12/26 08:19:02;;;;;;;100.50;47.27;;;;;;;-141.97;46.36;46223.88;5034790;28;20162;-89
2023/12/26 08:21:27;;;;;;;86.97;44.03;;;;;;;-141.97;46.11;45828.09;5032911;28;20627;-87
2023/12/26 08:23:53;;;;;;;94.70;43.53;;;;;;;-141.97;46.10;45847.31;5050547;28;20205;-91
2023/12/26 08:26:22;;;;;;;58.90;30.80;;;;;;;-141.97;45.77;45753.19;5035237;28;20575;-88
2023/12/26 08:28:49;;;;;;;81.00;41.03;;;;;;;-141.97;46.65;46168.16;5033942;28;20162;-91
2023/12/26 08:31:19;;;;;;;55.40;26.87;;;;;;;-141.97;46.53;45668.66;5039919;28;20194;-91
2023/12/26 08:33:45;;;;;;;33.43;18.80;;;;;;;-141.97;46.16;45887.66;5039956;28;20150;-90
2023/12/26 08:36:14;;;;;;;33.10;19.83;;;;;;;-141.97;46.79;45878.06;5036747;28;20203;-91
2023/12/26 08:38:41;;;;;;;26.13;16.63;;;;;;;-141.97;46.24;45678.25;5032784;28;20178;-91
2023/12/26 08:41:07;;;;;;;29.20;16.40;;;;;;;-141.97;45.70;45839.63;5032886;28;20193;-88
2023/12/26 08:43:32;;;;;;;33.00;17.23;;;;;;;-141.97;45.51;45666.72;5033514;28;20170;-90
2023/12/26 08:45:58;;;;;;;31.30;17.03;;;;;;;-141.97;45.06;46120.13;5032508;28;20655;-88
2023/12/26 08:48:24;;;;;;;34.30;18.70;;;;;;;-141.97;44.63;45701.31;5030062;28;20226;-87
2023/12/26 08:50:49;;;;;;;35.00;18.00;;;;;;;-141.97;44.54;45797.38;5036531;28;20219;-88
2023/12/26 08:53:15;;;;;;;31.93;16.13;;;;;;;-141.97;44.28;45774.31;5016083;28;20321;-87
2023/12/26 08:55:45;;;;;;;29.07;15.80;;;;;;;-141.97;44.08;46181.59;5017580;28;20163;-87
2023/12/26 08:58:11;;;;;;;27.60;15.47;;;;;;;-141.97;44.34;45831.94;5021400;28;20224;-88
2023/12/26 09:00:36;;;;;;;31.57;16.50;;;;;;;-141.97;43.96;45724.38;5035465;28;20283;-87
2023/12/26 09:03:02;;;;;;;30.47;16.53;;;;;;;-141.97;42.07;45764.72;5037235;28;20177;-88
2023/12/26 09:05:27;;;;;;;32.03;17.80;;;;;;;-141.97;41.96;45732.06;5033214;28;20174;-88
2023/12/26 09:07:53;;;;;;;31.83;17.93;;;;;;;-141.97;41.91;46077.84;5033991;28;20300;-89
2023/12/26 09:10:19;;;;;;;33.10;18.40;;;;;;;-141.97;41.51;45634.09;5148532;22;20257;-88
2023/12/26 09:12:44;;;;;;;33.20;19.60;;;;;;;-141.97;41.28;46179.69;5166625;22;20225;-90
2023/12/26 09:15:10;;;;;;;36.60;20.43;;;;;;;-141.97;40.73;45837.72;5138051;22;20302;-88
2023/12/26 09:17:36;;;;;;;39.80;22.63;;;;;;;-141.97;40.19;45762.78;5035863;28;20170;-88
2023/12/26 09:20:02;;;;;;;39.80;23.47;;;;;;;-141.97;39.62;45987.56;5035063;28;20272;-87
2023/12/26 09:22:29;;;;;;;36.97;20.40;;;;;;;-141.97;39.43;45728.22;5034883;28;20173;-87
2023/12/26 09:24:54;;;;;;;39.60;22.07;;;;;;;-141.97;39.51;45605.25;5034491;28;20170;-87
2023/12/26 09:27:20;;;;;;;40.10;22.70;;;;;;;-141.97;39.24;46148.94;5034602;28;20554;-85
2023/12/26 09:29:45;;;;;;;44.67;24.87;;;;;;;-141.97;38.71;46100.91;5032673;28;20225;-88
2023/12/26 09:32:11;;;;;;;36.37;22.60;;;;;;;-141.97;38.11;46208.50;5034718;28;20225;-88
2023/12/26 09:34:36;;;;;;;43.30;25.63;;;;;;;-141.97;38.24;45624.47;5034415;28;20222;-89
2023/12/26 09:37:02;;;;;;;33.43;20.00;;;;;;;-141.97;38.18;45647.53;5034603;28;20201;-87
2023/12/26 09:39:28;;;;;;;37.37;21.00;;;;;;;-141.97;38.49;45632.16;5032740;28;20189;-88
2023/12/26 09:41:55;;;;;;;37.90;20.23;;;;;;;-141.97;37.39;45949.13;5033964;28;20170;-87
2023/12/26 09:44:21;;;;;;;33.40;20.07;;;;;;;-141.97;37.69;46125.88;5033232;28;20178;-88
2023/12/26 09:46:47;;;;;;;38.03;22.63;;;;;;;-141.97;37.42;45782.00;5035794;28;20178;-87
2023/12/26 09:49:21;;;;;;;44.43;23.90;;;;;;;-141.97;38.01;45737.81;5056258;28;20229;-87
2023/12/26 09:59:27;;;;;;;25.53;15.77;;;;;;;-141.97;36.01;45755.09;5034894;28;20329;-88
2023/12/26 10:01:53;;;;;;;29.13;16.10;;;;;;;-141.97;36.07;45943.38;5028738;28;20709;-88
2023/12/26 10:04:19;;;;;;;28.43;15.63;;;;;;;-141.97;35.54;45962.59;5022342;28;20159;-87
2023/12/26 10:06:45;;;;;;;32.43;16.23;;;;;;;-141.97;35.66;45766.63;5013973;28;20179;-88
2023/12/26 10:09:10;;;;;;;33.90;16.40;;;;;;;-141.97;35.46;45926.06;5014642;28;20189;-89
2023/12/26 10:11:42;;;;;;;26.77;15.03;;;;;;;-141.97;35.36;45534.19;5013965;28;20194;-86
2023/12/26 10:14:07;;;;;;;27.53;15.30;;;;;;;-141.97;34.79;45566.84;5013827;28;20195;-87
2023/12/26 10:16:34;;;;;;;26.70;14.70;;;;;;;-141.97;34.81;45951.06;5011491;28;20588;-87
2023/12/26 10:19:13;;;;;;;25.83;15.13;;;;;;;-141.97;34.39;45762.78;5014525;28;20242;-87
2023/12/26 10:21:40;;;;;;;27.77;15.53;;;;;;;-141.97;34.35;45868.44;5012992;28;20162;-86
2023/12/26 10:24:10;;;;;;;27.27;15.83;;;;;;;-141.97;34.55;45757.03;5016061;28;20585;-86
2023/12/26 10:26:36;;;;;;;33.93;18.23;;;;;;;-141.97;34.66;45868.44;5014705;28;20167;-86
2023/12/26 10:29:12;;;;;;;31.50;16.67;;;;;;;-141.97;34.97;45741.66;5015624;28;20178;-85
2023/12/26 10:31:39;;;;;;;31.83;16.37;;;;;;;-141.97;34.86;45709.00;5015634;28;20194;-86
2023/12/26 10:34:48;;;;;;;27.00;16.30;;;;;;;-141.97;34.42;45712.84;5016021;28;20209;-87
2023/12/26 10:37:27;;;;;;;23.67;14.00;;;;;;;-141.97;33.34;45728.22;4977103;28;20204;-83
2023/12/26 10:39:53;;;;;;;23.20;14.63;;;;;;;-141.97;33.48;45551.47;4961076;28;20657;-86
2023/12/26 10:42:18;;;;;;;25.47;14.07;;;;;;;-141.97;33.27;45718.59;4983805;28;20210;-87
2023/12/26 10:45:04;;;;;;;23.00;14.67;;;;;;;-141.97;33.10;45739.72;4981537;28;20191;-88
2023/12/26 10:47:31;;;;;;;26.90;15.00;;;;;;;-141.97;33.58;45624.47;4972696;28;20621;-85
2023/12/26 10:49:59;;;;;;;27.17;15.13;;;;;;;-141.97;33.31;45593.75;4955967;28;20179;-86
2023/12/26 10:52:28;;;;;;;26.77;13.97;;;;;;;-141.97;33.04;45605.25;4972601;28;20495;-86
2023/12/26 10:55:00;;;;;;;19.73;11.07;;;;;;;-141.97;33.12;46058.63;4972018;28;20184;-88
2023/12/26 10:57:29;;;;;;;15.57;10.70;;;;;;;-141.97;32.53;45636.00;4957057;28;20234;-87
2023/12/26 14:34:15;;;;;;;87.77;44.43;;;;;;;-141.97;38.96;45778.16;4931634;29;20205;-89
2023/12/26 15:16:23;;;;;;;100.50;53.47;;;;;;;-141.97;43.83;45705.16;5611341;23;20236;-93
2023/12/26 15:18:48;;;;;;;103.13;54.37;;;;;;;-141.97;44.14;46185.44;4957327;28;20188;-91